Главная страница
METAR-TAF:

METAR-TAF

Аэропорты :

Бамако, Мали

широта: 12-32N, долгота: 007-57W, высота над уровнем моря: 380 м

Текущие метеонаблюдения

Эта сводка был подготовлена 16 минут назад, в 21:00 UTC
Ветер 2 Узел от северо-северо-восточный
Температура 21°C
Влажность 38%
Давление 1018 hPa
Видимость 10 км и более
Нет облачности ниже 1500 м, и нет кучево-дождевой облачности

METAR: GABS 092100Z 03002KT CAVOK 21/06 Q1018 NOSIG

Время: 21:16 (21:16 UTC)

Прогноз

Эта сводка был подготовлена 4 часа и 16 минут назад, в 17:00 UTC
Прогноз действительный с 09-го 18 UTC до 10-го 24 UTC
Ветер 6 Узел от восточно-северо-восточный
Видимость 10 км и более
Нет облачности ниже 1500 м, и нет кучево-дождевой облачности

TAF: GABS 091700Z 0918/1024 06006KT CAVOK

Метеонаблюдения и прогнозы для более 4000 аэропортов (сводки METAR и TAF).

Имеющиеся станции представлены на карте желтыми и красными точками.

Чтобы увидеть название станции, наведите на нее мышь.

Затем щелкните, чтобы увидеть метеонаблюдения и метеопрогнозы.

Управление картой: чтобы увеличить масштаб, щелкните зеленые кнопки с черным крестиком; чтобы уменьшить масштаб, щелкните зеленую кнопку с тире; для просмотра соседних карт щелкайте зеленые стрелки.


METAR-TAF: